sensor_id;sensor_type;location;lat;lon;timestamp;temperature;humidity
80380;DHT22;69690;48.158;17.134;2023-06-01T00:04:25;18.60;49.80
80380;DHT22;69690;48.158;17.134;2023-06-01T00:09:26;18.50;49.70
80380;DHT22;69690;48.158;17.134;2023-06-01T00:14:28;18.40;49.60
80380;DHT22;69690;48.158;17.134;2023-06-01T00:19:29;18.40;49.50
80380;DHT22;69690;48.158;17.134;2023-06-01T00:24:30;18.30;49.70
80380;DHT22;69690;48.158;17.134;2023-06-01T00:29:32;18.30;50.00
80380;DHT22;69690;48.158;17.134;2023-06-01T00:34:33;18.20;50.30
80380;DHT22;69690;48.158;17.134;2023-06-01T00:39:34;18.20;50.60
80380;DHT22;69690;48.158;17.134;2023-06-01T00:44:35;18.20;50.90
80380;DHT22;69690;48.158;17.134;2023-06-01T00:49:38;18.10;50.70
80380;DHT22;69690;48.158;17.134;2023-06-01T00:54:39;18.10;51.00
80380;DHT22;69690;48.158;17.134;2023-06-01T00:59:41;18.10;51.30
80380;DHT22;69690;48.158;17.134;2023-06-01T01:04:44;18.00;51.60
80380;DHT22;69690;48.158;17.134;2023-06-01T01:10:02;18.00;52.00
80380;DHT22;69690;48.158;17.134;2023-06-01T01:20:58;17.80;51.80
80380;DHT22;69690;48.158;17.134;2023-06-01T01:31:13;17.60;50.90
80380;DHT22;69690;48.158;17.134;2023-06-01T01:36:18;17.50;50.60
80380;DHT22;69690;48.158;17.134;2023-06-01T01:41:20;17.60;50.60
80380;DHT22;69690;48.158;17.134;2023-06-01T01:46:28;17.60;50.60
80380;DHT22;69690;48.158;17.134;2023-06-01T01:57:17;17.70;51.50
80380;DHT22;69690;48.158;17.134;2023-06-01T02:02:19;17.60;51.20
80380;DHT22;69690;48.158;17.134;2023-06-01T02:07:20;17.50;51.20
80380;DHT22;69690;48.158;17.134;2023-06-01T02:12:22;17.50;51.40
80380;DHT22;69690;48.158;17.134;2023-06-01T02:17:23;17.30;51.60
80380;DHT22;69690;48.158;17.134;2023-06-01T02:22:26;17.40;52.40
80380;DHT22;69690;48.158;17.134;2023-06-01T02:27:27;17.30;52.20
80380;DHT22;69690;48.158;17.134;2023-06-01T02:32:30;17.30;52.50
80380;DHT22;69690;48.158;17.134;2023-06-01T02:37:33;17.30;52.70
80380;DHT22;69690;48.158;17.134;2023-06-01T02:42:34;17.20;52.90
80380;DHT22;69690;48.158;17.134;2023-06-01T02:47:36;17.20;53.00
80380;DHT22;69690;48.158;17.134;2023-06-01T02:52:39;17.10;53.00
80380;DHT22;69690;48.158;17.134;2023-06-01T02:57:42;17.10;53.10
80380;DHT22;69690;48.158;17.134;2023-06-01T03:02:44;16.90;53.30
80380;DHT22;69690;48.158;17.134;2023-06-01T03:07:47;16.70;53.50
80380;DHT22;69690;48.158;17.134;2023-06-01T03:12:48;16.80;53.50
80380;DHT22;69690;48.158;17.134;2023-06-01T03:17:50;16.80;53.00
80380;DHT22;69690;48.158;17.134;2023-06-01T03:22:51;16.90;53.30
80380;DHT22;69690;48.158;17.134;2023-06-01T03:27:53;17.00;53.60
80380;DHT22;69690;48.158;17.134;2023-06-01T03:32:54;17.00;53.60
80380;DHT22;69690;48.158;17.134;2023-06-01T03:37:56;17.00;53.90
80380;DHT22;69690;48.158;17.134;2023-06-01T03:42:57;16.90;53.80
80380;DHT22;69690;48.158;17.134;2023-06-01T03:47:58;16.90;53.80
80380;DHT22;69690;48.158;17.134;2023-06-01T03:53:00;17.00;54.40
80380;DHT22;69690;48.158;17.134;2023-06-01T03:58:02;16.90;54.80
80380;DHT22;69690;48.158;17.134;2023-06-01T04:03:04;16.90;55.60
80380;DHT22;69690;48.158;17.134;2023-06-01T04:08:08;16.90;55.40
80380;DHT22;69690;48.158;17.134;2023-06-01T04:13:10;16.90;55.80
80380;DHT22;69690;48.158;17.134;2023-06-01T04:18:11;17.00;56.30
80380;DHT22;69690;48.158;17.134;2023-06-01T04:23:13;17.00;56.30
80380;DHT22;69690;48.158;17.134;2023-06-01T04:28:16;17.00;56.00
80380;DHT22;69690;48.158;17.134;2023-06-01T04:33:18;17.10;55.90
80380;DHT22;69690;48.158;17.134;2023-06-01T04:38:20;17.20;56.10
80380;DHT22;69690;48.158;17.134;2023-06-01T04:43:22;17.30;56.20
80380;DHT22;69690;48.158;17.134;2023-06-01T04:48:24;17.30;55.90
80380;DHT22;69690;48.158;17.134;2023-06-01T04:53:27;17.30;55.70
80380;DHT22;69690;48.158;17.134;2023-06-01T04:58:28;17.40;56.00
80380;DHT22;69690;48.158;17.134;2023-06-01T05:03:30;17.40;55.70
80380;DHT22;69690;48.158;17.134;2023-06-01T05:08:31;17.50;55.20
80380;DHT22;69690;48.158;17.134;2023-06-01T05:13:38;17.60;55.10
80380;DHT22;69690;48.158;17.134;2023-06-01T05:18:40;17.70;55.20
80380;DHT22;69690;48.158;17.134;2023-06-01T05:23:41;17.80;54.30
80380;DHT22;69690;48.158;17.134;2023-06-01T05:28:43;17.80;53.30
80380;DHT22;69690;48.158;17.134;2023-06-01T05:33:44;18.00;53.10
80380;DHT22;69690;48.158;17.134;2023-06-01T05:38:46;18.10;52.60
80380;DHT22;69690;48.158;17.134;2023-06-01T05:43:47;18.30;52.40
80380;DHT22;69690;48.158;17.134;2023-06-01T05:48:49;18.40;51.80
80380;DHT22;69690;48.158;17.134;2023-06-01T05:53:51;18.60;51.70
80380;DHT22;69690;48.158;17.134;2023-06-01T05:58:52;18.60;51.70
80380;DHT22;69690;48.158;17.134;2023-06-01T06:03:54;18.80;51.10
80380;DHT22;69690;48.158;17.134;2023-06-01T06:08:56;18.90;51.00
80380;DHT22;69690;48.158;17.134;2023-06-01T06:13:57;19.00;50.20
80380;DHT22;69690;48.158;17.134;2023-06-01T06:18:58;19.10;49.10
80380;DHT22;69690;48.158;17.134;2023-06-01T06:23:59;19.30;48.90
80380;DHT22;69690;48.158;17.134;2023-06-01T06:29:00;19.30;47.90
80380;DHT22;69690;48.158;17.134;2023-06-01T06:34:02;19.50;47.10
80380;DHT22;69690;48.158;17.134;2023-06-01T06:39:05;19.60;47.00
80380;DHT22;69690;48.158;17.134;2023-06-01T06:44:07;19.70;46.40
80380;DHT22;69690;48.158;17.134;2023-06-01T06:49:08;19.80;47.00
80380;DHT22;69690;48.158;17.134;2023-06-01T06:54:10;19.90;46.50
80380;DHT22;69690;48.158;17.134;2023-06-01T06:59:11;19.90;46.20
80380;DHT22;69690;48.158;17.134;2023-06-01T07:04:13;20.00;46.20
80380;DHT22;69690;48.158;17.134;2023-06-01T07:09:15;20.20;45.90
80380;DHT22;69690;48.158;17.134;2023-06-01T07:14:16;20.30;45.50
80380;DHT22;69690;48.158;17.134;2023-06-01T07:19:17;20.40;45.80
80380;DHT22;69690;48.158;17.134;2023-06-01T07:24:19;20.50;47.10
80380;DHT22;69690;48.158;17.134;2023-06-01T07:29:20;20.70;47.90
80380;DHT22;69690;48.158;17.134;2023-06-01T07:34:22;21.00;47.50
80380;DHT22;69690;48.158;17.134;2023-06-01T07:39:24;21.00;47.70
80380;DHT22;69690;48.158;17.134;2023-06-01T07:44:25;21.10;47.50
80380;DHT22;69690;48.158;17.134;2023-06-01T07:49:27;21.20;46.70
80380;DHT22;69690;48.158;17.134;2023-06-01T07:54:30;21.30;46.70
80380;DHT22;69690;48.158;17.134;2023-06-01T07:59:32;21.40;47.60
80380;DHT22;69690;48.158;17.134;2023-06-01T08:04:33;21.60;47.20
80380;DHT22;69690;48.158;17.134;2023-06-01T08:09:35;21.60;47.40
80380;DHT22;69690;48.158;17.134;2023-06-01T08:14:38;21.50;48.30
80380;DHT22;69690;48.158;17.134;2023-06-01T08:19:41;21.60;48.70
80380;DHT22;69690;48.158;17.134;2023-06-01T08:24:43;21.60;49.00
80380;DHT22;69690;48.158;17.134;2023-06-01T08:29:46;21.70;48.80
80380;DHT22;69690;48.158;17.134;2023-06-01T08:34:48;21.90;48.30
80380;DHT22;69690;48.158;17.134;2023-06-01T08:39:50;22.10;48.10
80380;DHT22;69690;48.158;17.134;2023-06-01T08:44:54;22.50;47.60
80380;DHT22;69690;48.158;17.134;2023-06-01T08:49:58;22.60;47.00
80380;DHT22;69690;48.158;17.134;2023-06-01T08:55:01;22.70;46.70
80380;DHT22;69690;48.158;17.134;2023-06-01T09:00:03;22.90;46.10
80380;DHT22;69690;48.158;17.134;2023-06-01T09:10:09;23.10;45.30
80380;DHT22;69690;48.158;17.134;2023-06-01T09:15:16;23.40;44.70
80380;DHT22;69690;48.158;17.134;2023-06-01T09:20:26;23.60;43.00
80380;DHT22;69690;48.158;17.134;2023-06-01T09:25:32;23.70;42.10
80380;DHT22;69690;48.158;17.134;2023-06-01T09:30:41;23.70;41.70
80380;DHT22;69690;48.158;17.134;2023-06-01T09:35:49;24.00;40.20
80380;DHT22;69690;48.158;17.134;2023-06-01T09:41:01;24.30;38.60
80380;DHT22;69690;48.158;17.134;2023-06-01T09:46:05;24.40;37.40
80380;DHT22;69690;48.158;17.134;2023-06-01T09:51:24;24.30;34.00
80380;DHT22;69690;48.158;17.134;2023-06-01T09:56:43;24.50;31.60
80380;DHT22;69690;48.158;17.134;2023-06-01T10:01:53;24.80;31.10
80380;DHT22;69690;48.158;17.134;2023-06-01T10:06:57;27.50;29.90
80380;DHT22;69690;48.158;17.134;2023-06-01T10:11:58;32.70;26.40
80380;DHT22;69690;48.158;17.134;2023-06-01T10:17:00;33.30;25.40
80380;DHT22;69690;48.158;17.134;2023-06-01T10:22:02;35.50;24.00
80380;DHT22;69690;48.158;17.134;2023-06-01T10:27:26;35.80;23.70
80380;DHT22;69690;48.158;17.134;2023-06-01T10:37:41;34.50;24.40
80380;DHT22;69690;48.158;17.134;2023-06-01T10:42:42;35.90;23.70
80380;DHT22;69690;48.158;17.134;2023-06-01T10:47:44;34.70;23.30
80380;DHT22;69690;48.158;17.134;2023-06-01T10:52:46;33.30;24.60
80380;DHT22;69690;48.158;17.134;2023-06-01T10:57:50;32.80;25.00
80380;DHT22;69690;48.158;17.134;2023-06-01T11:02:56;32.30;25.10
80380;DHT22;69690;48.158;17.134;2023-06-01T11:07:57;32.00;25.10
80380;DHT22;69690;48.158;17.134;2023-06-01T11:13:14;32.40;25.60
80380;DHT22;69690;48.158;17.134;2023-06-01T11:18:45;33.50;24.50
80380;DHT22;69690;48.158;17.134;2023-06-01T11:23:53;33.30;25.20
80380;DHT22;69690;48.158;17.134;2023-06-01T11:29:07;33.50;24.30
80380;DHT22;69690;48.158;17.134;2023-06-01T11:34:39;33.40;24.60
80380;DHT22;69690;48.158;17.134;2023-06-01T11:39:45;32.20;24.70
80380;DHT22;69690;48.158;17.134;2023-06-01T11:44:57;31.00;25.70
80380;DHT22;69690;48.158;17.134;2023-06-01T11:49:59;30.70;26.60
80380;DHT22;69690;48.158;17.134;2023-06-01T11:55:03;30.40;26.70
80380;DHT22;69690;48.158;17.134;2023-06-01T12:00:10;31.70;26.50
80380;DHT22;69690;48.158;17.134;2023-06-01T12:05:15;32.10;26.40
80380;DHT22;69690;48.158;17.134;2023-06-01T12:10:18;31.70;25.90
80380;DHT22;69690;48.158;17.134;2023-06-01T12:15:20;30.70;26.50
80380;DHT22;69690;48.158;17.134;2023-06-01T12:20:36;30.50;27.10
80380;DHT22;69690;48.158;17.134;2023-06-01T12:25:52;31.20;27.20
80380;DHT22;69690;48.158;17.134;2023-06-01T12:31:11;31.00;27.20
80380;DHT22;69690;48.158;17.134;2023-06-01T12:36:35;31.40;27.50
80380;DHT22;69690;48.158;17.134;2023-06-01T12:41:36;31.10;27.10
80380;DHT22;69690;48.158;17.134;2023-06-01T12:46:47;30.30;27.90
80380;DHT22;69690;48.158;17.134;2023-06-01T12:51:58;30.30;28.60
80380;DHT22;69690;48.158;17.134;2023-06-01T12:57:03;30.00;28.20
80380;DHT22;69690;48.158;17.134;2023-06-01T13:02:05;30.20;28.80
80380;DHT22;69690;48.158;17.134;2023-06-01T13:07:06;30.80;28.30
80380;DHT22;69690;48.158;17.134;2023-06-01T13:12:10;31.10;28.30
80380;DHT22;69690;48.158;17.134;2023-06-01T13:17:11;31.10;27.90
80380;DHT22;69690;48.158;17.134;2023-06-01T13:22:12;30.90;28.60
80380;DHT22;69690;48.158;17.134;2023-06-01T13:27:14;30.50;28.40
80380;DHT22;69690;48.158;17.134;2023-06-01T13:32:16;30.30;28.60
80380;DHT22;69690;48.158;17.134;2023-06-01T13:37:17;30.50;29.10
80380;DHT22;69690;48.158;17.134;2023-06-01T13:42:18;29.70;29.00
80380;DHT22;69690;48.158;17.134;2023-06-01T13:47:20;29.00;29.90
80380;DHT22;69690;48.158;17.134;2023-06-01T13:52:21;29.30;30.00
80380;DHT22;69690;48.158;17.134;2023-06-01T13:57:25;29.50;30.00
80380;DHT22;69690;48.158;17.134;2023-06-01T14:02:27;29.90;29.40
80380;DHT22;69690;48.158;17.134;2023-06-01T14:07:28;29.50;29.80
80380;DHT22;69690;48.158;17.134;2023-06-01T14:12:29;29.70;30.60
80380;DHT22;69690;48.158;17.134;2023-06-01T14:17:31;29.80;29.90
80380;DHT22;69690;48.158;17.134;2023-06-01T14:22:32;29.80;30.00
80380;DHT22;69690;48.158;17.134;2023-06-01T14:27:33;29.70;29.90
80380;DHT22;69690;48.158;17.134;2023-06-01T14:32:36;29.70;30.00
80380;DHT22;69690;48.158;17.134;2023-06-01T14:37:41;29.50;29.80
80380;DHT22;69690;48.158;17.134;2023-06-01T14:42:44;29.00;30.10
80380;DHT22;69690;48.158;17.134;2023-06-01T14:47:45;29.10;30.00
80380;DHT22;69690;48.158;17.134;2023-06-01T14:52:47;29.10;30.30
80380;DHT22;69690;48.158;17.134;2023-06-01T14:57:48;29.00;30.40
80380;DHT22;69690;48.158;17.134;2023-06-01T15:02:49;29.00;31.10
80380;DHT22;69690;48.158;17.134;2023-06-01T15:07:53;28.80;30.10
80380;DHT22;69690;48.158;17.134;2023-06-01T15:12:54;28.60;30.20
80380;DHT22;69690;48.158;17.134;2023-06-01T15:17:55;28.60;30.60
80380;DHT22;69690;48.158;17.134;2023-06-01T15:22:56;28.70;31.10
80380;DHT22;69690;48.158;17.134;2023-06-01T15:27:57;28.80;31.30
80380;DHT22;69690;48.158;17.134;2023-06-01T15:32:59;28.60;30.50
80380;DHT22;69690;48.158;17.134;2023-06-01T15:38:00;28.70;30.60
80380;DHT22;69690;48.158;17.134;2023-06-01T15:43:01;28.50;30.30
80380;DHT22;69690;48.158;17.134;2023-06-01T15:48:02;28.40;31.50
80380;DHT22;69690;48.158;17.134;2023-06-01T15:53:04;28.50;31.00
80380;DHT22;69690;48.158;17.134;2023-06-01T15:58:07;28.50;31.00
80380;DHT22;69690;48.158;17.134;2023-06-01T16:03:09;28.50;30.60
80380;DHT22;69690;48.158;17.134;2023-06-01T16:08:10;28.70;31.10
80380;DHT22;69690;48.158;17.134;2023-06-01T16:13:11;28.70;30.90
80380;DHT22;69690;48.158;17.134;2023-06-01T16:18:13;28.60;31.30
80380;DHT22;69690;48.158;17.134;2023-06-01T16:23:14;28.50;31.30
80380;DHT22;69690;48.158;17.134;2023-06-01T16:28:15;28.40;30.80
80380;DHT22;69690;48.158;17.134;2023-06-01T16:33:16;28.30;30.70
80380;DHT22;69690;48.158;17.134;2023-06-01T16:38:17;28.10;31.10
80380;DHT22;69690;48.158;17.134;2023-06-01T16:43:19;27.90;31.50
80380;DHT22;69690;48.158;17.134;2023-06-01T16:48:20;27.80;31.60
80380;DHT22;69690;48.158;17.134;2023-06-01T16:53:21;27.60;32.40
80380;DHT22;69690;48.158;17.134;2023-06-01T16:58:23;27.50;33.00
80380;DHT22;69690;48.158;17.134;2023-06-01T17:03:24;27.50;32.00
80380;DHT22;69690;48.158;17.134;2023-06-01T17:08:25;27.50;32.40
80380;DHT22;69690;48.158;17.134;2023-06-01T17:13:27;27.30;32.00
80380;DHT22;69690;48.158;17.134;2023-06-01T17:18:28;27.20;32.10
80380;DHT22;69690;48.158;17.134;2023-06-01T17:23:29;27.00;32.40
80380;DHT22;69690;48.158;17.134;2023-06-01T17:28:30;27.00;32.70
80380;DHT22;69690;48.158;17.134;2023-06-01T17:33:32;26.90;33.20
80380;DHT22;69690;48.158;17.134;2023-06-01T17:38:33;26.80;33.30
80380;DHT22;69690;48.158;17.134;2023-06-01T17:43:34;26.70;33.50
80380;DHT22;69690;48.158;17.134;2023-06-01T17:48:36;26.60;33.50
80380;DHT22;69690;48.158;17.134;2023-06-01T17:53:37;26.50;34.20
80380;DHT22;69690;48.158;17.134;2023-06-01T17:58:38;26.40;35.10
80380;DHT22;69690;48.158;17.134;2023-06-01T18:03:39;26.20;35.80
80380;DHT22;69690;48.158;17.134;2023-06-01T18:08:41;26.10;36.20
80380;DHT22;69690;48.158;17.134;2023-06-01T18:13:42;25.90;36.70
80380;DHT22;69690;48.158;17.134;2023-06-01T18:18:43;25.80;37.20
80380;DHT22;69690;48.158;17.134;2023-06-01T18:23:45;25.50;37.40
80380;DHT22;69690;48.158;17.134;2023-06-01T18:28:47;25.40;37.70
80380;DHT22;69690;48.158;17.134;2023-06-01T18:33:49;25.30;38.30
80380;DHT22;69690;48.158;17.134;2023-06-01T18:38:50;25.10;38.80
80380;DHT22;69690;48.158;17.134;2023-06-01T18:43:51;25.00;39.50
80380;DHT22;69690;48.158;17.134;2023-06-01T18:48:52;24.80;40.00
80380;DHT22;69690;48.158;17.134;2023-06-01T18:53:54;24.60;40.80
80380;DHT22;69690;48.158;17.134;2023-06-01T18:58:55;24.50;41.30
80380;DHT22;69690;48.158;17.134;2023-06-01T19:03:57;24.30;41.50
80380;DHT22;69690;48.158;17.134;2023-06-01T19:09:02;24.20;42.00
80380;DHT22;69690;48.158;17.134;2023-06-01T19:14:03;24.10;42.50
80380;DHT22;69690;48.158;17.134;2023-06-01T19:19:05;23.90;43.00
80380;DHT22;69690;48.158;17.134;2023-06-01T19:24:08;23.70;43.60
80380;DHT22;69690;48.158;17.134;2023-06-01T19:29:14;23.50;43.80
80380;DHT22;69690;48.158;17.134;2023-06-01T19:34:16;23.50;43.80
80380;DHT22;69690;48.158;17.134;2023-06-01T19:44:30;23.30;43.70
80380;DHT22;69690;48.158;17.134;2023-06-01T19:49:41;23.30;43.70
80380;DHT22;69690;48.158;17.134;2023-06-01T19:54:42;23.20;43.70
80380;DHT22;69690;48.158;17.134;2023-06-01T19:59:44;23.20;44.00
80380;DHT22;69690;48.158;17.134;2023-06-01T20:04:45;23.10;44.50
80380;DHT22;69690;48.158;17.134;2023-06-01T20:09:47;23.10;44.70
80380;DHT22;69690;48.158;17.134;2023-06-01T20:14:50;23.00;45.40
80380;DHT22;69690;48.158;17.134;2023-06-01T20:19:51;22.90;45.50
80380;DHT22;69690;48.158;17.134;2023-06-01T20:24:53;22.80;46.10
80380;DHT22;69690;48.158;17.134;2023-06-01T20:29:54;22.70;46.60
80380;DHT22;69690;48.158;17.134;2023-06-01T20:34:55;22.70;46.90
80380;DHT22;69690;48.158;17.134;2023-06-01T20:39:57;22.60;46.90
80380;DHT22;69690;48.158;17.134;2023-06-01T20:44:59;22.50;47.40
80380;DHT22;69690;48.158;17.134;2023-06-01T20:50:01;22.40;47.70
80380;DHT22;69690;48.158;17.134;2023-06-01T20:55:03;22.40;48.00
80380;DHT22;69690;48.158;17.134;2023-06-01T21:00:04;22.40;48.20
80380;DHT22;69690;48.158;17.134;2023-06-01T21:05:07;22.30;48.50
80380;DHT22;69690;48.158;17.134;2023-06-01T21:10:08;22.20;49.00
80380;DHT22;69690;48.158;17.134;2023-06-01T21:15:10;22.10;49.50
80380;DHT22;69690;48.158;17.134;2023-06-01T21:20:13;22.10;49.70
80380;DHT22;69690;48.158;17.134;2023-06-01T21:25:14;22.00;49.70
80380;DHT22;69690;48.158;17.134;2023-06-01T21:30:16;22.00;49.80
80380;DHT22;69690;48.158;17.134;2023-06-01T21:35:17;21.90;50.30
80380;DHT22;69690;48.158;17.134;2023-06-01T21:40:18;21.80;50.60
80380;DHT22;69690;48.158;17.134;2023-06-01T21:45:20;21.70;50.40
80380;DHT22;69690;48.158;17.134;2023-06-01T21:50:21;21.70;50.30
80380;DHT22;69690;48.158;17.134;2023-06-01T21:55:23;21.60;50.30
80380;DHT22;69690;48.158;17.134;2023-06-01T22:00:25;21.50;50.50
80380;DHT22;69690;48.158;17.134;2023-06-01T22:05:27;21.50;50.60
80380;DHT22;69690;48.158;17.134;2023-06-01T22:10:29;21.50;51.20
80380;DHT22;69690;48.158;17.134;2023-06-01T22:15:31;21.40;51.50
80380;DHT22;69690;48.158;17.134;2023-06-01T22:20:32;21.40;51.70
80380;DHT22;69690;48.158;17.134;2023-06-01T22:25:34;21.30;52.00
80380;DHT22;69690;48.158;17.134;2023-06-01T22:30:37;21.30;52.20
80380;DHT22;69690;48.158;17.134;2023-06-01T22:35:40;21.30;52.20
80380;DHT22;69690;48.158;17.134;2023-06-01T22:40:41;21.30;52.30
80380;DHT22;69690;48.158;17.134;2023-06-01T22:45:43;21.30;52.60
80380;DHT22;69690;48.158;17.134;2023-06-01T22:50:44;21.30;52.80
80380;DHT22;69690;48.158;17.134;2023-06-01T22:55:45;21.20;52.70
80380;DHT22;69690;48.158;17.134;2023-06-01T23:00:50;21.20;52.90
80380;DHT22;69690;48.158;17.134;2023-06-01T23:05:52;21.20;55.40
80380;DHT22;69690;48.158;17.134;2023-06-01T23:10:53;21.20;53.50
80380;DHT22;69690;48.158;17.134;2023-06-01T23:15:54;21.10;53.50
80380;DHT22;69690;48.158;17.134;2023-06-01T23:20:56;21.10;53.50
80380;DHT22;69690;48.158;17.134;2023-06-01T23:25:57;21.10;53.70
80380;DHT22;69690;48.158;17.134;2023-06-01T23:30:59;21.00;53.60
80380;DHT22;69690;48.158;17.134;2023-06-01T23:36:01;21.00;53.60
80380;DHT22;69690;48.158;17.134;2023-06-01T23:41:02;20.90;53.90
80380;DHT22;69690;48.158;17.134;2023-06-01T23:46:04;20.90;54.00
80380;DHT22;69690;48.158;17.134;2023-06-01T23:51:06;20.80;54.40
80380;DHT22;69690;48.158;17.134;2023-06-01T23:56:07;20.80;54.60
